createdAt,value
2023-01-05T00:00:12.196Z,3172.64623
2023-01-05T00:15:14.433Z,3225.07171
2023-01-05T00:30:16.814Z,3911.54162
2023-01-05T00:45:19.122Z,4391.00129
2023-01-05T01:00:21.422Z,4192.5931
2023-01-05T01:15:23.850Z,4227.03561
2023-01-05T01:30:26.170Z,3832.09258
2023-01-05T01:45:28.490Z,2769.08076
2023-01-05T02:00:30.772Z,2090.1039
2023-01-05T02:15:33.188Z,2091.64869
2023-01-05T02:30:35.480Z,2224.84327
2023-01-05T02:45:37.754Z,2620.37089
2023-01-05T03:00:40.220Z,2721.15437
2023-01-05T03:15:42.553Z,2679.92476
2023-01-05T03:30:44.987Z,2841.36599
2023-01-05T03:45:47.249Z,2881.87425
2023-01-05T04:00:49.438Z,3952.51447
2023-01-05T04:15:51.943Z,3704.18898
2023-01-05T04:30:54.406Z,2682.46497
2023-01-05T04:45:56.909Z,2873.09697
2023-01-05T05:00:59.218Z,2692.67416
2023-01-05T05:16:01.522Z,3086.15098
2023-01-05T05:31:03.849Z,2134.23881
2023-01-05T05:46:06.218Z,2617.94686
2023-01-05T06:01:08.511Z,2441.76065
2023-01-05T06:16:11.053Z,2105.65526
2023-01-05T06:31:13.380Z,2312.09201
2023-01-05T06:46:15.665Z,2412.61773
2023-01-05T07:01:18.162Z,2625.23243
2023-01-05T07:16:20.662Z,3325.4999
2023-01-05T07:31:23.164Z,4128.37395
2023-01-05T07:46:25.589Z,3808.8834
2023-01-05T08:01:28.259Z,4113.3726
2023-01-05T08:16:30.725Z,4477.84861
2023-01-05T08:31:33.084Z,4947.55297
2023-01-05T08:46:35.321Z,5416.26848
2023-01-05T09:01:37.625Z,5324.55369
2023-01-05T09:17:05.777Z,4969.27182
2023-01-05T09:32:09.197Z,5615.07991
2023-01-05T09:47:11.468Z,5468.59958
2023-01-05T10:02:13.708Z,5728.74549
2023-01-05T10:17:40.404Z,6991.97083
2023-01-05T10:32:50.102Z,7769.38965
2023-01-05T10:47:53.230Z,8460.38915
2023-01-05T11:02:55.696Z,8788.82039
2023-01-05T11:17:57.980Z,8714.39621
2023-01-05T11:33:00.221Z,8524.0969
2023-01-05T11:48:02.720Z,9070.51335
2023-01-05T12:03:05.112Z,8864.52675
2023-01-05T12:18:07.439Z,9048.76152
2023-01-05T12:48:42.158Z,9464.88348
2023-01-05T13:03:44.435Z,9417.63781
2023-01-05T13:18:46.999Z,10143.36973
2023-01-05T13:33:49.258Z,9675.21422
2023-01-05T13:49:03.228Z,9218.24157
2023-01-05T14:04:06.385Z,8984.12751
2023-01-05T14:19:08.829Z,8323.52992
2023-01-05T14:34:11.139Z,8878.43189
2023-01-05T14:49:13.424Z,8899.37159
2023-01-05T15:04:15.652Z,8674.33002
2023-01-05T15:19:17.900Z,8460.38915
2023-01-05T15:34:20.184Z,8536.95376
2023-01-05T15:49:22.451Z,8727.83398
2023-01-05T16:04:24.735Z,8498.49901
2023-01-05T16:19:27.071Z,8360.4141
2023-01-05T16:34:29.331Z,8097.28233
2023-01-05T16:49:31.537Z,8126.34652
2023-01-05T17:04:33.845Z,6815.17206
2023-01-05T17:19:36.106Z,5799.18088
2023-01-05T17:34:39.648Z,5631.84135
2023-01-05T17:49:43.039Z,5359.84902
2023-01-05T18:04:45.314Z,5279.85128
2023-01-05T18:19:47.579Z,5405.92222
2023-01-05T18:34:49.789Z,5370.01951
2023-01-05T18:49:52.076Z,4845.89093
2023-01-05T19:04:54.487Z,4601.62653
2023-01-05T19:19:56.755Z,4394.41045
2023-01-05T19:34:58.972Z,3949.75626
2023-01-05T19:50:01.285Z,4074.87451
2023-01-05T20:05:03.515Z,4122.3603
2023-01-05T20:20:05.769Z,3718.79156
2023-01-05T20:35:08.009Z,3803.76394
2023-01-05T20:50:10.285Z,3834.68884
2023-01-05T21:05:12.546Z,3966.3635
2023-01-05T21:20:14.854Z,3969.14496
2023-01-05T21:35:17.107Z,3960.81226
2023-01-05T21:50:19.408Z,3783.42296
2023-01-05T22:05:21.597Z,3466.01396
2023-01-05T22:20:23.808Z,3409.63904
2023-01-05T22:35:26.114Z,3373.06366
2023-01-05T22:50:28.382Z,3485.22217
2023-01-05T23:05:30.723Z,3589.09371
2023-01-05T23:20:32.887Z,3591.37105
2023-01-05T23:35:35.072Z,3985.91599
2023-01-05T23:50:37.350Z,4255.6396
